Pleasant Grove, California
Current Conditions -  °F | °C
As of 4:15 AM on Saturday 25 Oct 2014 (Local Time) from KLHM Reporting Station
Clear Clear  
Wind Chill: 16°   Ceiling: Unl
Heat Index: 16°   Visibility: 10mi
Dew Point: 10°   Wind: 9mph
Humidity: 68%   Direction: 120°ESE
Pressure: 29.9"   Gusts: NA
Location:  38.82°N, 121.48°W
Report Text: KLHM 251115Z AUTO 12008KT 10SM CLR 16/10 A2990 RMK AO1
Loading
Personal Weather Stations






























Interactive Weather Map
Tropical Storm Tracking
New forecast layout! Learn more

10-Day Weather Forecast

Advertisements
Track Severe Weather on mobile